Airfield :
LOGIN :

Register | Disclaimer

   EN    FR    IT 

 










Legend :    VFR   Marginal VFR   IFR   Intensive IFR   Very Intensive IFR
Visi :
Ceiling :
>= 8 km
>= 3000ft
5 to 8 km
1000 to 3000 ft
1500m to 5 km
500 to 1000 ft
800 to 1500m
200 to 500 ft
< 800m
< 200 ft
Symbols :   Thunderstorms  Fog  Heavy snow  Heavy precipitations  Wind > 20 kt
SIGMETs :     Misc.  Thunderstorms  Icing  Turbulence  Mountain Waves  Volcanic Ashes






- Airport Elevation : 202 ft
- IATA code : LGW


EGKK - London Gatwick

CURRENT METAR :
  • 022150Z VRB01KT CAVOK 16/06 Q1013

EXPIRED METARs :
  • 022120Z 32004KT CAVOK 19/05 Q1014
  • 022050Z 30004KT CAVOK 19/05 Q1014
  • 022020Z 29004KT CAVOK 18/06 Q1014
  • 021950Z 30004KT CAVOK 21/04 Q1014
  • 021920Z 32005KT CAVOK 22/03 Q1014

TAF TAF EGKK
Valid from the 02 at 18:00 until the 04 at 00:00 UTC


021657Z 0218/0324 34006KT CAVOK
PROB30
TEMPO 0300/0307 8000
PROB30
TEMPO 0307/0313 7000 SHRA
BECMG 0311/0314 BKN025
TEMPO 0313/0324 7000 -RA
PROB40
TEMPO 0313/0324 RA SHRA BKN014



MET'MAP, your aeronautical weather chart ! - Copyright ORBIFLY December 2007 - Disclaimer

ORBIFLY MET'MAP TEAM :

Programming & Development : Alexandra Zaïnal
Concept & original design : Baudouin d'Aumeries
Assistance for programming : Marc-Olivier Méhu
Technical & hardware support : Manuel Goepfert

Contact : metmap@orbifly.com




SOURCES & CREDITS :

   NOAA